Santiago Hernández

Chief Scout - Leganés
22 Feb 2027
Monday
Process

Personality

Adaptability (7) Ambition (2) Controversy (8) Loyalty (1) Pressure (19) Professionalism (3) Sportsmanship (7) Temperament (14)

Profile

Coaching Style Democratic
License Continental Pro
Determination 13
Man Management 4
Motivating 9
Discipline 11
Job Satisfaction
59%
Fatigue
0%
Role Chief Scout
Wage 85.5K p/w
Contract 14.03.2028

Performance

Behaviour Good
Training Effectiveness
23%
Player Development
60%
Injury Prevention
45%
Tactical Implementation
50%

Recent Events

Assessed a player now
Attended a recruitment meeting now
Recommended a transfer target now
Assessed a player now
Assessed a player now
Observed a match now
Observed a match 7d ago
Assessed a player 7d ago

Currently Monitoring

73
Player Club Status Ability Confidence Watched Last Observed Latest Vote
Eliás Montiel Pachuca Active 140 / 116 40% 3 21.02.2027 -
Elie N'Gatta Sochaux Active 106 / 100 40% 2 21.02.2027 -
Mbekezeli Mbokazi Chicago Fire Active 127 / 133 40% 2 19.02.2027 -
Mathis Amougou RC Strasbourg Active 122 / 122 40% 3 19.02.2027 -
Mauricio Amaro Atlanta United FC Active 117 / 134 40% 2 18.02.2027 -
Ivan M'Bahia Clermont Foot Active 114 / 119 40% 2 18.02.2027 -
Santiago Fernández Talleres Active 130 / 132 40% 3 14.02.2027 -
Tomy Carbonell Real Sociedad Report Ready 110 / 110 67% 1 14.02.2027 -
Obed Vargas Atlético Madrid Active 131 / 115 40% 1 10.02.2027 -
Sergio Quintero La Equidad Active 152 / 161 40% 3 08.02.2027 -
Lucas Agazzi Defensor Sporting Active 104 / 133 40% 1 08.02.2027 -
Jakub Adkonis Lechia Active 86 / 80 40% 1 07.02.2027 -
Tiago Freitas Benfica Active 108 / 111 40% 1 07.02.2027 -
Simphiwe Selepe Orlando Pirates Active 121 / 135 40% 2 05.02.2027 -
Alexandro Maidana Talleres Active 128 / 116 40% 1 05.02.2027 -
Halam Loboa Independiente Medellin Active 100 / 129 40% 2 04.02.2027 -
Surprise Manthosi Polokwane City Active 101 / 84 40% 1 04.02.2027 -
Sergi Domínguez Dinamo Zagreb Active 106 / 112 40% 1 03.02.2027 -
Jonathan Arteaga Veracruz Active 133 / 115 40% 4 02.02.2027 -
Cemran Dansin Orlando Pirates Active 108 / 123 40% 1 29.01.2027 -
Leandro Martins Benfica Active 90 / 95 40% 1 27.01.2027 -
Filip Taraba Istra 1961 Active 110 / 91 40% 1 27.01.2027 -
Juan Pablo De la Reta Maipú Active 121 / 132 40% 2 25.01.2027 -
Agustín Alvez San Lorenzo Active 102 / 124 40% 1 25.01.2027 -
Riyad Idrissi Cagliari Active 127 / 123 40% 1 24.01.2027 -
Sebastián Ramírez America de Cali Active 117 / 125 40% 1 24.01.2027 -
Marco Oroná Antofagasta Active 80 / 105 40% 1 21.01.2027 -
Agustín Medina Lanús Active 128 / 142 40% 1 21.01.2027 -
Alexis Vossah Toulouse FC Active 107 / 123 40% 1 19.01.2027 -
Rubén Alves Córdoba Active 132 / 115 51% 1 18.01.2027 -
João Teixeira Porto Active 118 / 112 40% 1 18.01.2027 -
Toni Abad Huesca Active 117 / 118 51% 1 11.01.2027 -
Esquerdinha São Paulo Negotiating 101 / 110 66% 1 01.01.2027 -
Andrey Estupiñán Millonarios Lost 120 / 120 66% 1 01.01.2027 -
Khama Tau Black Aces Report Ready 116 / 116 67% 1 01.01.2027 Approve
Luca Orellano Monterrey Active 154 / 135 40% 6 31.12.2026 -
Etiosa Ighodaro Kaizer Chiefs Active 104 / 109 40% 1 31.12.2026 -
Allahyar Sayyadmanesh Lech Active 142 / 142 40% 1 30.12.2026 -
Jerónimo Porto Lapegüe Slask Active 124 / 109 40% 1 30.12.2026 -
Adam Jakobsen Castellón Active 129 / 112 40% 2 28.12.2026 -
Roberto de la Rosa Monterrey Active 116 / 118 40% 2 27.12.2026 -
Malik Mothersille Stockport County Active 112 / 106 40% 1 26.12.2026 -
Lorent Tolaj Plymouth Argyle Active 111 / 113 40% 2 25.12.2026 -
Ramiro Ruiz Rodríguez Atlético Tucumán Active 103 / 138 40% 1 24.12.2026 -
Brayan León Mamelodi Sundowns Active 130 / 133 40% 1 24.12.2026 -
Ignacio Russo Tigre Active 136 / 137 40% 2 22.12.2026 -
Bienvenue Kanakimana Zbrojovka Brno Active 115 / 136 40% 1 19.12.2026 -
Alexander Díaz Deportivo Riestra Active 133 / 138 40% 1 19.12.2026 -
Dom Ballard Leyton Orient Active 120 / 123 40% 2 18.12.2026 -
Duk Atlas Active 121 / 100 40% 1 16.12.2026 -
Rok Zajc NK Domzale Active 105 / 127 40% 1 15.12.2026 -
Camilo Durán Bloemfontein Celtic Active 106 / 110 40% 1 14.12.2026 -
Diego Valencia Gornik Leczna Active 92 / 104 40% 1 14.12.2026 -
Marco Miori Alvarado Active 102 / 104 40% 1 13.12.2026 -
Mateo Fernández Angusht Active 88 / 69 40% 1 12.12.2026 -
García Pascual Cádiz Active 110 / 135 40% 1 12.12.2026 -
Zé Leite Oliveirense Active 127 / 126 40% 1 09.12.2026 -
Alejandro Piedrahita Deportivo Pereira Active 141 / 106 40% 1 09.12.2026 -
Yoshan Valois Lanús Active 132 / 104 40% 1 08.12.2026 -
Marco Rossello Probiy Active 79 / 61 40% 1 07.12.2026 -
Assad Al Hamlawi Universitatea Craiova Active 142 / 121 40% 1 07.12.2026 -
Thorgan Nainggolan Mouscron Active 117 / 114 40% 1 19.11.2026 -
Kaick FC Dallas Active 97 / 115 40% 1 06.10.2026 -
Kevin Contreras Union Espanola Active 93 / 89 40% 1 05.10.2026 -
Luther Phiri SuperSport United Active 113 / 115 40% 2 16.09.2026 -
Alejandro Almaraz Nueva Chicago Active 90 / 115 40% 1 16.09.2026 -
Ignacio Perruzzi San Lorenzo Active 102 / 148 40% 1 11.09.2026 -
Gaetano Motta Patronato Active 110 / 106 40% 1 10.09.2026 -
Agustín Seyral Sarmiento Active 105 / 93 40% 1 08.09.2026 -
Gonzalo Escudero Racing Club Active 89 / 95 40% 1 01.09.2026 -
Ignacio Isla Unión de Santa Fe Active 94 / 105 40% 1 31.08.2026 -
Keimer Sandoval Deportivo Cali Active 106 / 93 40% 1 25.08.2026 -
Iker Recio Cádiz Active 128 / 117 51% 1 03.08.2026 -